createdAt,value
2022-12-12T00:04:00.198Z,13.23
2022-12-12T00:06:31.101Z,15.65
2022-12-12T00:10:03.649Z,18.25
2022-12-12T00:16:45.498Z,16.93
2022-12-12T00:20:05.443Z,17.60
2022-12-12T00:22:49.375Z,13.32
2022-12-12T00:25:38.746Z,13.10
2022-12-12T00:28:06.513Z,11.10
2022-12-12T00:31:15.556Z,11.38
2022-12-12T00:33:50.286Z,11.03
2022-12-12T00:36:52.997Z,12.20
2022-12-12T00:42:22.922Z,11.88
2022-12-12T00:44:49.666Z,12.00
2022-12-12T00:47:18.627Z,13.32
2022-12-12T00:50:09.645Z,11.38
2022-12-12T00:52:37.491Z,12.73
2022-12-12T00:55:05.561Z,13.27
2022-12-12T00:57:35.945Z,13.98
2022-12-12T01:00:06.439Z,13.38
2022-12-12T01:02:34.543Z,12.95
2022-12-12T01:05:03.190Z,13.02
2022-12-12T01:07:30.158Z,13.48
2022-12-12T01:09:57.088Z,11.88
2022-12-12T01:12:23.920Z,12.05
2022-12-12T01:15:20.280Z,11.27
2022-12-12T01:19:27.838Z,12.55
2022-12-12T01:21:54.545Z,10.10
2022-12-12T01:24:21.558Z,10.70
2022-12-12T01:26:48.469Z,11.93
2022-12-12T01:29:32.576Z,11.90
2022-12-12T01:32:09.249Z,10.07
2022-12-12T01:38:50.317Z,10.27
2022-12-12T01:41:55.677Z,10.93
2022-12-12T01:45:15.072Z,10.68
2022-12-12T01:47:51.019Z,11.27
2022-12-12T01:50:18.282Z,11.73
2022-12-12T01:53:14.988Z,11.35
2022-12-12T01:55:43.288Z,12.20
2022-12-12T02:11:47.293Z,13.13
2022-12-12T02:12:33.636Z,14.95
2022-12-12T02:15:04.188Z,17.58
2022-12-12T02:18:21.121Z,18.02
2022-12-12T02:21:52.770Z,19.83
2022-12-12T02:25:25.842Z,18.38
2022-12-12T02:35:41.983Z,19.20
2022-12-12T02:38:50.476Z,21.15
2022-12-12T02:42:16.694Z,19.77
2022-12-12T02:48:49.140Z,20.10
2022-12-12T02:51:57.310Z,19.52
2022-12-12T02:58:32.469Z,21.13
2022-12-12T03:02:01.510Z,19.90
2022-12-12T04:11:59.221Z,20.23
2022-12-12T04:22:49.533Z,21.58
2022-12-12T04:25:32.891Z,19.77
2022-12-12T04:28:05.725Z,21.80
2022-12-12T04:30:35.233Z,19.33
2022-12-12T04:33:13.099Z,18.70
2022-12-12T04:35:45.504Z,18.58
2022-12-12T04:38:42.620Z,17.65
2022-12-12T04:41:11.989Z,18.30
2022-12-12T04:43:43.459Z,19.67
2022-12-12T04:46:18.156Z,20.08
2022-12-12T04:48:55.358Z,18.95
2022-12-12T04:51:33.769Z,18.80
2022-12-12T04:54:29.420Z,19.15
2022-12-12T04:57:00.943Z,20.17
2022-12-12T04:59:28.974Z,20.20
2022-12-12T05:02:02.597Z,19.98
2022-12-12T05:04:32.350Z,18.83
2022-12-12T05:07:10.903Z,19.30
2022-12-12T05:09:38.495Z,19.27
2022-12-12T05:12:05.623Z,18.75
2022-12-12T05:14:33.018Z,19.67
2022-12-12T05:17:07.857Z,20.80
2022-12-12T05:23:57.688Z,17.77
2022-12-12T05:26:29.283Z,19.63
2022-12-12T05:30:12.848Z,20.17
2022-12-12T05:43:40.080Z,21.42
2022-12-12T05:46:56.468Z,21.73
2022-12-12T05:49:50.269Z,20.27
2022-12-12T05:52:22.810Z,21.42
2022-12-12T05:55:04.089Z,22.00
2022-12-12T05:57:30.763Z,22.30
2022-12-12T06:00:25.492Z,21.10
2022-12-12T06:02:54.781Z,23.17
2022-12-12T06:06:04.095Z,22.98
2022-12-12T06:08:35.061Z,21.73
2022-12-12T06:23:16.494Z,19.70
2022-12-12T06:26:04.524Z,20.88
2022-12-12T06:28:34.642Z,19.73
2022-12-12T06:33:36.525Z,18.60
2022-12-12T06:36:09.292Z,20.27
2022-12-12T06:38:36.333Z,20.40
2022-12-12T06:41:12.610Z,22.33
2022-12-12T06:44:37.247Z,19.88
2022-12-12T06:47:03.910Z,16.15
2022-12-12T06:49:30.436Z,21.63
2022-12-12T07:31:16.523Z,18.15
2022-12-12T07:42:03.808Z,16.52
2022-12-12T07:48:45.328Z,16.25
2022-12-12T07:58:49.262Z,16.77
2022-12-12T08:02:56.309Z,16.45
2022-12-12T08:05:39.713Z,15.35
2022-12-12T08:35:58.194Z,13.80
2022-12-12T08:50:32.797Z,12.82
2022-12-12T08:54:04.537Z,12.30
2022-12-12T09:00:53.147Z,12.30
2022-12-12T09:03:23.535Z,13.00
2022-12-12T09:05:54.116Z,14.60
2022-12-12T09:08:20.625Z,14.20
2022-12-12T09:10:50.133Z,12.50
2022-12-12T09:13:17.109Z,10.85
2022-12-12T09:15:43.694Z,11.60
2022-12-12T09:18:10.167Z,11.10
2022-12-12T09:20:36.660Z,13.10
2022-12-12T09:23:03.238Z,8.48
2022-12-12T09:25:29.734Z,9.02
2022-12-12T09:27:56.584Z,7.93
2022-12-12T09:30:23.283Z,8.05
2022-12-12T09:32:49.856Z,9.70
2022-12-12T09:35:16.651Z,7.80
2022-12-12T09:37:43.183Z,6.90
2022-12-12T09:40:18.010Z,7.78
2022-12-12T09:42:51.389Z,8.30
2022-12-12T09:45:19.616Z,5.80
2022-12-12T09:47:49.543Z,6.93
2022-12-12T09:50:26.382Z,6.53
2022-12-12T09:52:56.662Z,6.00
2022-12-12T09:55:26.831Z,5.53
2022-12-12T09:58:02.578Z,5.70
2022-12-12T10:00:35.350Z,5.63
2022-12-12T10:03:19.232Z,5.35
2022-12-12T10:09:28.581Z,5.25
2022-12-12T10:11:56.733Z,4.80
2022-12-12T10:14:43.745Z,6.05
2022-12-12T10:17:37.697Z,5.43
2022-12-12T10:20:24.069Z,5.65
2022-12-12T10:23:07.134Z,6.18
2022-12-12T10:25:51.219Z,6.32
2022-12-12T10:28:19.947Z,5.32
2022-12-12T10:31:02.215Z,5.20
2022-12-12T10:33:47.838Z,4.65
2022-12-12T10:36:26.368Z,5.10
2022-12-12T10:39:14.611Z,5.22
2022-12-12T10:41:48.812Z,5.53
2022-12-12T10:44:15.281Z,5.35
2022-12-12T10:46:58.043Z,5.20
2022-12-12T10:49:25.015Z,5.07
2022-12-12T10:51:52.516Z,4.78
2022-12-12T10:54:26.199Z,5.20
2022-12-12T10:57:07.781Z,5.15
2022-12-12T10:59:49.548Z,5.63
2022-12-12T11:02:38.266Z,5.70
2022-12-12T11:05:28.026Z,6.80
2022-12-12T11:08:04.605Z,5.72
2022-12-12T11:10:36.816Z,5.90
2022-12-12T11:13:09.404Z,6.18
2022-12-12T11:15:44.160Z,6.22
2022-12-12T11:18:16.121Z,5.65
2022-12-12T11:21:07.910Z,6.40
2022-12-12T11:23:36.500Z,6.57
2022-12-12T11:26:11.074Z,7.80
2022-12-12T11:28:38.806Z,7.30
2022-12-12T11:31:09.061Z,6.70
2022-12-12T11:33:44.808Z,6.88
2022-12-12T11:36:16.905Z,6.55
2022-12-12T11:38:50.559Z,5.93
2022-12-12T11:41:17.730Z,7.07
2022-12-12T11:43:44.174Z,4.60
2022-12-12T11:46:13.506Z,4.57
2022-12-12T11:48:47.368Z,5.95
2022-12-12T11:51:29.826Z,4.95
2022-12-12T11:53:56.389Z,5.72
2022-12-12T11:56:49.120Z,5.05
2022-12-12T11:59:35.412Z,6.03
2022-12-12T12:02:27.230Z,6.55
2022-12-12T12:05:12.028Z,6.90
2022-12-12T12:08:27.201Z,5.75
2022-12-12T12:11:27.932Z,6.20
2022-12-12T12:14:05.543Z,5.50
2022-12-12T12:16:59.772Z,5.18
2022-12-12T12:19:47.375Z,4.50
2022-12-12T12:22:25.941Z,5.05
2022-12-12T12:25:05.555Z,4.82
2022-12-12T12:27:43.003Z,4.82
2022-12-12T12:30:25.572Z,5.10
2022-12-12T12:33:18.631Z,5.20
2022-12-12T12:35:48.111Z,4.68
2022-12-12T12:38:21.898Z,5.05
2022-12-12T12:41:17.163Z,5.00
2022-12-12T12:44:17.613Z,4.95
2022-12-12T12:46:49.267Z,4.95
2022-12-12T12:49:23.477Z,5.90
2022-12-12T12:51:59.136Z,7.20
2022-12-12T12:54:33.884Z,9.63
2022-12-12T12:57:20.748Z,7.75
2022-12-12T12:59:51.803Z,7.93
2022-12-12T13:02:42.862Z,7.60
2022-12-12T13:05:14.942Z,6.38
2022-12-12T13:08:17.667Z,7.60
2022-12-12T13:10:50.486Z,7.05
2022-12-12T13:13:44.981Z,6.72
2022-12-12T13:16:15.630Z,8.38
2022-12-12T13:18:46.187Z,7.75
2022-12-12T13:22:00.665Z,8.43
2022-12-12T13:24:43.139Z,8.27
2022-12-12T13:27:17.342Z,8.95
2022-12-12T13:29:50.735Z,9.35
2022-12-12T13:32:45.079Z,9.32
2022-12-12T13:35:17.117Z,9.55
2022-12-12T13:37:54.891Z,10.05
2022-12-12T13:40:26.937Z,10.32
2022-12-12T13:42:57.352Z,12.20
2022-12-12T13:45:40.474Z,11.73
2022-12-12T13:48:31.017Z,11.77
2022-12-12T13:51:53.445Z,11.20
2022-12-12T13:54:19.905Z,11.13
2022-12-12T13:56:58.389Z,13.15
2022-12-12T13:59:27.721Z,10.82
2022-12-12T14:02:00.042Z,10.75
2022-12-12T14:04:31.665Z,10.05
2022-12-12T14:07:12.241Z,10.70
2022-12-12T14:09:48.300Z,9.35
2022-12-12T14:12:29.221Z,11.80
2022-12-12T14:15:06.074Z,12.52
2022-12-12T14:17:42.252Z,11.57
2022-12-12T14:20:37.253Z,11.20
2022-12-12T14:23:08.404Z,11.70
2022-12-12T14:28:32.574Z,11.95
2022-12-12T14:30:59.062Z,9.88
2022-12-12T14:33:49.085Z,12.70
2022-12-12T14:36:40.854Z,12.52
2022-12-12T14:39:10.321Z,12.07
2022-12-12T14:41:39.836Z,13.27
2022-12-12T14:44:36.616Z,11.43
2022-12-12T14:47:07.392Z,11.45
2022-12-12T14:49:33.899Z,12.55
2022-12-12T14:52:00.593Z,12.13
2022-12-12T14:54:27.425Z,12.40
2022-12-12T14:56:59.095Z,13.50
2022-12-12T14:59:29.797Z,12.13
2022-12-12T15:02:05.359Z,12.18
2022-12-12T15:04:35.200Z,11.50
2022-12-12T15:07:07.025Z,10.43
2022-12-12T15:09:38.831Z,11.40
2022-12-12T15:12:08.264Z,12.20
2022-12-12T15:14:34.801Z,11.80
2022-12-12T15:17:07.154Z,10.57
2022-12-12T15:19:41.264Z,11.45
2022-12-12T15:22:22.042Z,11.50
2022-12-12T15:24:48.783Z,13.07
2022-12-12T15:27:41.571Z,12.32
2022-12-12T15:30:43.611Z,13.25
2022-12-12T15:33:22.447Z,12.50
2022-12-12T15:36:01.822Z,14.30
2022-12-12T15:38:29.695Z,12.88
2022-12-12T15:40:59.730Z,14.13
2022-12-12T15:45:55.012Z,12.65
2022-12-12T15:48:22.719Z,15.25
2022-12-12T15:50:59.286Z,14.70
2022-12-12T15:53:31.444Z,16.80
2022-12-12T15:56:04.827Z,20.38
2022-12-12T15:58:35.182Z,24.98
2022-12-12T16:01:03.354Z,20.40
2022-12-12T16:03:29.947Z,19.70
2022-12-12T16:06:14.026Z,18.95
2022-12-12T16:08:54.321Z,17.13
2022-12-12T16:11:38.844Z,14.70
2022-12-12T16:14:23.754Z,29.75
2022-12-12T16:16:53.243Z,28.52
2022-12-12T16:19:38.401Z,23.77
2022-12-12T16:22:13.620Z,19.70
2022-12-12T16:24:55.545Z,18.90
2022-12-12T16:27:22.537Z,16.70
2022-12-12T16:29:49.085Z,18.67
2022-12-12T16:32:19.005Z,38.83
2022-12-12T16:37:14.852Z,33.83
2022-12-12T16:39:42.053Z,22.38
2022-12-12T16:42:16.544Z,27.58
2022-12-12T16:44:43.723Z,20.58
2022-12-12T16:47:14.521Z,17.33
2022-12-12T16:49:41.285Z,19.02
2022-12-12T16:52:09.769Z,21.33
2022-12-12T16:54:36.230Z,21.02
2022-12-12T16:57:02.749Z,18.42
2022-12-12T16:59:29.240Z,16.38
2022-12-12T17:01:55.767Z,15.73
2022-12-12T17:04:23.926Z,19.50
2022-12-12T17:06:50.904Z,18.10
2022-12-12T17:09:17.702Z,22.27
2022-12-12T17:11:44.238Z,22.08
2022-12-12T17:14:19.757Z,19.70
2022-12-12T17:16:46.335Z,19.45
2022-12-12T17:19:12.867Z,21.00
2022-12-12T17:21:39.390Z,17.98
2022-12-12T17:24:07.023Z,20.05
2022-12-12T17:26:35.146Z,19.70
2022-12-12T17:29:02.550Z,19.33
2022-12-12T17:31:29.167Z,20.33
2022-12-12T17:33:55.737Z,20.38
2022-12-12T17:36:22.291Z,19.42
2022-12-12T17:38:49.109Z,17.58
2022-12-12T17:41:15.754Z,18.15
2022-12-12T17:43:42.313Z,18.05
2022-12-12T17:46:15.021Z,19.17
2022-12-12T17:48:43.661Z,20.15
2022-12-12T17:51:12.665Z,19.15
2022-12-12T17:53:39.877Z,18.90
2022-12-12T17:56:14.995Z,17.35
2022-12-12T17:58:44.157Z,17.80
2022-12-12T18:01:12.517Z,19.58
2022-12-12T18:03:39.239Z,22.35
2022-12-12T18:06:06.114Z,21.35
2022-12-12T18:08:32.937Z,18.95
2022-12-12T18:10:59.571Z,19.10
2022-12-12T18:13:26.741Z,17.23
2022-12-12T18:15:55.495Z,17.20
2022-12-12T18:18:22.268Z,17.45
2022-12-12T18:20:49.098Z,17.27
2022-12-12T18:23:15.814Z,19.10
2022-12-12T18:25:42.389Z,18.70
2022-12-12T18:28:12.249Z,19.23
2022-12-12T18:33:10.197Z,14.98
2022-12-12T18:35:36.873Z,16.48
2022-12-12T18:38:03.473Z,15.23
2022-12-12T18:40:29.939Z,13.43
2022-12-12T18:42:56.462Z,13.35
2022-12-12T18:45:24.062Z,17.25
2022-12-12T18:47:50.686Z,17.17
2022-12-12T18:50:17.250Z,18.77
2022-12-12T18:52:43.800Z,17.92
2022-12-12T18:55:10.340Z,17.27
2022-12-12T18:57:36.830Z,17.02
2022-12-12T19:00:06.878Z,18.00
2022-12-12T19:02:38.363Z,15.57
2022-12-12T19:05:05.966Z,15.95
2022-12-12T19:07:32.934Z,15.27
2022-12-12T19:09:59.455Z,17.05
2022-12-12T19:12:25.992Z,14.73
2022-12-12T19:15:15.638Z,16.45
2022-12-12T19:17:39.009Z,13.77
2022-12-12T19:20:06.244Z,13.70
2022-12-12T19:22:45.384Z,13.05
2022-12-12T19:25:12.484Z,12.90
2022-12-12T19:27:39.008Z,13.18
2022-12-12T19:30:06.247Z,15.18
2022-12-12T19:32:32.918Z,18.08
2022-12-12T19:34:59.741Z,15.70
2022-12-12T19:37:26.302Z,14.35
2022-12-12T19:39:52.970Z,13.77
2022-12-12T19:42:20.372Z,13.00
2022-12-12T19:44:46.936Z,13.30
2022-12-12T19:47:13.423Z,18.23
2022-12-12T19:49:39.957Z,11.98
2022-12-12T19:52:12.220Z,14.52
2022-12-12T19:54:40.544Z,14.82
2022-12-12T19:57:07.043Z,16.65
2022-12-12T19:59:33.615Z,16.42
2022-12-12T20:02:01.004Z,16.33
2022-12-12T20:04:30.137Z,16.38
2022-12-12T20:06:56.728Z,15.68
2022-12-12T20:09:28.525Z,18.38
2022-12-12T20:11:57.652Z,17.95
2022-12-12T20:14:27.548Z,16.20
2022-12-12T20:16:55.254Z,12.98
2022-12-12T20:19:23.126Z,15.25
2022-12-12T20:22:00.726Z,13.32
2022-12-12T20:24:28.890Z,13.48
2022-12-12T20:26:56.025Z,13.30
2022-12-12T20:29:23.506Z,14.35
2022-12-12T20:31:50.459Z,14.25
2022-12-12T20:34:19.195Z,15.80
2022-12-12T20:36:46.591Z,16.70
2022-12-12T20:39:22.306Z,12.95
2022-12-12T20:41:50.406Z,12.65
2022-12-12T20:44:18.102Z,11.40
2022-12-12T20:46:46.580Z,13.95
2022-12-12T20:49:16.985Z,14.23
2022-12-12T20:51:59.751Z,18.70
2022-12-12T20:54:28.775Z,17.10
2022-12-12T20:56:56.910Z,14.38
2022-12-12T20:59:24.899Z,13.25
2022-12-12T21:01:51.938Z,13.70
2022-12-12T21:04:18.646Z,14.35
2022-12-12T21:06:48.376Z,14.95
2022-12-12T21:09:22.593Z,15.13
2022-12-12T21:11:52.061Z,15.63
2022-12-12T21:14:18.607Z,18.17
2022-12-12T21:16:45.123Z,17.73
2022-12-12T21:19:13.643Z,15.55
2022-12-12T21:21:42.143Z,15.85
2022-12-12T21:24:09.950Z,14.27
2022-12-12T21:26:36.404Z,14.43
2022-12-12T21:29:04.886Z,13.05
2022-12-12T21:31:34.663Z,14.38
2022-12-12T21:34:01.459Z,14.85
2022-12-12T21:36:29.104Z,14.43
2022-12-12T21:38:57.221Z,14.90
2022-12-12T21:41:23.946Z,13.13
2022-12-12T21:43:51.359Z,13.30
2022-12-12T21:46:24.027Z,11.93
2022-12-12T21:49:09.911Z,13.35
2022-12-12T21:51:36.633Z,13.10
2022-12-12T21:54:04.877Z,13.95
2022-12-12T21:56:31.950Z,14.60
2022-12-12T21:58:59.344Z,16.17
2022-12-12T22:01:26.444Z,14.52
2022-12-12T22:03:53.929Z,12.82
2022-12-12T22:06:23.305Z,14.10
2022-12-12T22:08:50.769Z,11.30
2022-12-12T22:11:39.794Z,14.75
2022-12-12T22:14:06.726Z,13.77
2022-12-12T22:16:33.887Z,14.52
2022-12-12T22:19:05.821Z,14.35
2022-12-12T22:21:33.849Z,13.82
2022-12-12T22:24:01.065Z,14.75
2022-12-12T22:26:29.035Z,13.55
2022-12-12T22:28:58.863Z,16.25
2022-12-12T22:33:56.209Z,14.77
2022-12-12T22:36:34.194Z,11.00
2022-12-12T22:39:01.207Z,12.98
2022-12-12T22:41:29.440Z,13.30
2022-12-12T22:44:01.263Z,13.80
2022-12-12T22:46:28.904Z,13.73
2022-12-12T22:48:59.097Z,14.50
2022-12-12T22:51:28.323Z,13.90
2022-12-12T22:53:56.116Z,11.65
2022-12-12T22:56:23.411Z,14.43
2022-12-12T22:58:49.987Z,13.77
2022-12-12T23:01:19.129Z,13.68
2022-12-12T23:03:46.593Z,12.20
2022-12-12T23:06:21.854Z,13.43
2022-12-12T23:08:54.143Z,13.77
2022-12-12T23:11:22.645Z,16.13
2022-12-12T23:13:49.393Z,14.50
2022-12-12T23:16:21.463Z,15.73
2022-12-12T23:18:48.758Z,15.73
2022-12-12T23:21:18.298Z,16.63
2022-12-12T23:23:46.047Z,16.52
2022-12-12T23:26:15.759Z,20.60
2022-12-12T23:28:43.015Z,19.92
2022-12-12T23:31:16.075Z,19.35
2022-12-12T23:33:42.662Z,19.83
2022-12-12T23:36:10.841Z,18.40
2022-12-12T23:38:37.988Z,16.70
2022-12-12T23:41:06.549Z,16.77
2022-12-12T23:43:33.175Z,16.60
2022-12-12T23:46:07.329Z,15.98
2022-12-12T23:48:34.971Z,16.80
2022-12-12T23:51:01.534Z,14.48
2022-12-12T23:53:31.698Z,15.65
2022-12-12T23:56:03.622Z,15.13
2022-12-12T23:58:30.337Z,20.55
